Portada
METAR-TAF:

METAR-TAF

Aeroports :

Kristianstad, Suècia

latitud: 55-55N, longitud: 014-05E, altitud: 23 m

Observació

L'informe es va fer fa 30 minuts, a les 18:50 UTC
Vent 7 kt del Nord-Oest
Temperatura 23°C
Humitat 65%
Pressió 1015 hPa
Visibilitat 10 km o més

METAR: ESMK 231850Z AUTO 31007KT 9999 // BKN039/// OVC049/// 23/16 Q1015

Hora: 21:20 (19:20 UTC)

Pronòstic

L'informe es va fer fa 8 hores i 17 minuts, a les 11:03 UTC
Pronòstic vàlid del 23 a les 12 UTC al 23 a les 15 UTC
Vent 2 kt amb direcció variable
Visibilitat 10 km o més
Núvols disperses a una alçada de 4000 ft
Evolucionant progressivament
l' 23 a les 12 UTC al 23 a les 15 UTC
Vent 10 kt del Sud/Sud-Est

TAF: ESMK 231103Z 2312/2315 VRB02KT 9999 SCT040 BECMG 2312/2315 15010KT

Observacions i pronòstics meteorològics de més de 4000 aeroports (METAR i TAF).

Les estacions disponibles són els punts grocs i vermells al mapa.

Posi el ratolí al punt desitjat per veure el nom de l'estació.

Feu clic per veure les observacions i els pronòstics meteorològics.

Per canviar el mapa: feu clic els botons verds amb una creu de color negre per apropar; al botó verd amb un guió per allunyar la imatge; o en les fletxes verdes per a mapes adjacents.


METAR-TAF: